Cobbs, Mississippi
Current Conditions -  °F | °C
As of 6:53 PM on Friday 19 Dec 2014 (Local Time) from KMCB Reporting Station
Light Rain Light Rain  
Wind Chill: 42°   Ceiling: 600
Heat Index: 46°   Visibility: 6mi
Dew Point: 43°   Wind: 7mph
Humidity: 89%   Direction: 40°NE
Pressure: 30.11"   Gusts: NA
Location:  31.5898°N, 90.4722°W
Report Text: KMCB 200053Z AUTO 04006KT 6SM -RA BR BKN006 OVC070 08/06 A3011 RMK AO2 SLP195 P0009 T00780061
Loading
Personal Weather Stations






























Interactive Weather Map New forecast layout! Learn more

10-Day Weather Forecast

Advertisements
Track Severe Weather on mobile